sensor_id;sensor_type;location;lat;lon;timestamp;temperature;humidity
6662;DHT22;3367;48.714;8.994;2023-03-31T00:00:24;9.10;1.00
6662;DHT22;3367;48.714;8.994;2023-03-31T00:02:51;9.00;1.00
6662;DHT22;3367;48.714;8.994;2023-03-31T00:05:20;9.00;1.00
6662;DHT22;3367;48.714;8.994;2023-03-31T00:07:53;9.00;1.00
6662;DHT22;3367;48.714;8.994;2023-03-31T00:10:26;9.10;1.00
6662;DHT22;3367;48.714;8.994;2023-03-31T00:12:52;9.00;1.00
6662;DHT22;3367;48.714;8.994;2023-03-31T00:15:19;9.30;1.00
6662;DHT22;3367;48.714;8.994;2023-03-31T00:17:46;9.10;1.00
6662;DHT22;3367;48.714;8.994;2023-03-31T00:20:13;9.10;1.00
6662;DHT22;3367;48.714;8.994;2023-03-31T00:22:40;9.10;1.00
6662;DHT22;3367;48.714;8.994;2023-03-31T00:25:13;9.10;1.00
6662;DHT22;3367;48.714;8.994;2023-03-31T00:27:40;9.10;1.00
6662;DHT22;3367;48.714;8.994;2023-03-31T00:30:09;9.20;1.00
6662;DHT22;3367;48.714;8.994;2023-03-31T00:32:37;9.20;1.00
6662;DHT22;3367;48.714;8.994;2023-03-31T00:35:04;9.20;1.00
6662;DHT22;3367;48.714;8.994;2023-03-31T00:37:30;9.20;1.00
6662;DHT22;3367;48.714;8.994;2023-03-31T00:39:58;9.20;1.00
6662;DHT22;3367;48.714;8.994;2023-03-31T00:42:27;9.20;1.00
6662;DHT22;3367;48.714;8.994;2023-03-31T00:45:23;9.20;1.00
6662;DHT22;3367;48.714;8.994;2023-03-31T00:47:54;9.30;1.00
6662;DHT22;3367;48.714;8.994;2023-03-31T00:50:26;9.30;1.00
6662;DHT22;3367;48.714;8.994;2023-03-31T00:52:56;9.40;1.00
6662;DHT22;3367;48.714;8.994;2023-03-31T00:55:27;9.50;1.00
6662;DHT22;3367;48.714;8.994;2023-03-31T00:57:58;9.40;1.00
6662;DHT22;3367;48.714;8.994;2023-03-31T01:00:26;9.40;1.00
6662;DHT22;3367;48.714;8.994;2023-03-31T01:02:56;9.50;1.00
6662;DHT22;3367;48.714;8.994;2023-03-31T01:05:27;9.50;1.00
6662;DHT22;3367;48.714;8.994;2023-03-31T01:07:55;9.60;1.00
6662;DHT22;3367;48.714;8.994;2023-03-31T01:10:23;9.60;1.00
6662;DHT22;3367;48.714;8.994;2023-03-31T01:12:53;9.70;1.00
6662;DHT22;3367;48.714;8.994;2023-03-31T01:15:22;9.60;1.00
6662;DHT22;3367;48.714;8.994;2023-03-31T01:17:49;9.60;1.00
6662;DHT22;3367;48.714;8.994;2023-03-31T01:20:24;9.60;1.00
6662;DHT22;3367;48.714;8.994;2023-03-31T01:23:18;9.50;1.00
6662;DHT22;3367;48.714;8.994;2023-03-31T01:28:55;9.50;1.00
6662;DHT22;3367;48.714;8.994;2023-03-31T01:31:44;9.50;1.00
6662;DHT22;3367;48.714;8.994;2023-03-31T01:40:32;9.60;1.00
6662;DHT22;3367;48.714;8.994;2023-03-31T01:43:05;9.70;1.00
6662;DHT22;3367;48.714;8.994;2023-03-31T01:45:43;9.70;1.00
6662;DHT22;3367;48.714;8.994;2023-03-31T01:48:16;9.70;1.00
6662;DHT22;3367;48.714;8.994;2023-03-31T01:50:47;9.80;1.00
6662;DHT22;3367;48.714;8.994;2023-03-31T01:53:19;9.80;1.00
6662;DHT22;3367;48.714;8.994;2023-03-31T01:55:53;9.90;1.00
6662;DHT22;3367;48.714;8.994;2023-03-31T01:58:27;9.90;1.00
6662;DHT22;3367;48.714;8.994;2023-03-31T02:00:58;9.90;1.00
6662;DHT22;3367;48.714;8.994;2023-03-31T02:03:30;9.90;1.00
6662;DHT22;3367;48.714;8.994;2023-03-31T02:06:04;9.90;1.00
6662;DHT22;3367;48.714;8.994;2023-03-31T02:08:36;10.00;1.00
6662;DHT22;3367;48.714;8.994;2023-03-31T02:11:05;10.00;1.00
6662;DHT22;3367;48.714;8.994;2023-03-31T02:13:33;10.00;1.00
6662;DHT22;3367;48.714;8.994;2023-03-31T02:16:04;9.90;1.00
6662;DHT22;3367;48.714;8.994;2023-03-31T02:18:33;9.90;1.00
6662;DHT22;3367;48.714;8.994;2023-03-31T02:21:03;9.80;24.90
6662;DHT22;3367;48.714;8.994;2023-03-31T02:23:32;9.80;99.90
6662;DHT22;3367;48.714;8.994;2023-03-31T02:26:02;9.70;99.90
6662;DHT22;3367;48.714;8.994;2023-03-31T02:28:31;9.70;99.90
6662;DHT22;3367;48.714;8.994;2023-03-31T02:31:15;9.70;99.90
6662;DHT22;3367;48.714;8.994;2023-03-31T02:33:46;9.60;99.90
6662;DHT22;3367;48.714;8.994;2023-03-31T02:36:14;9.60;99.90
6662;DHT22;3367;48.714;8.994;2023-03-31T02:38:45;9.60;99.90
6662;DHT22;3367;48.714;8.994;2023-03-31T02:41:13;9.60;99.90
6662;DHT22;3367;48.714;8.994;2023-03-31T02:43:41;9.60;99.90
6662;DHT22;3367;48.714;8.994;2023-03-31T02:46:08;9.60;99.90
6662;DHT22;3367;48.714;8.994;2023-03-31T02:48:37;9.50;99.90
6662;DHT22;3367;48.714;8.994;2023-03-31T02:51:36;9.50;99.90
6662;DHT22;3367;48.714;8.994;2023-03-31T02:54:26;9.50;99.90
6662;DHT22;3367;48.714;8.994;2023-03-31T02:57:11;9.60;99.90
6662;DHT22;3367;48.714;8.994;2023-03-31T02:59:52;9.50;1.00
6662;DHT22;3367;48.714;8.994;2023-03-31T03:02:28;9.50;1.00
6662;DHT22;3367;48.714;8.994;2023-03-31T03:05:18;9.50;1.00
6662;DHT22;3367;48.714;8.994;2023-03-31T03:07:51;9.40;1.00
6662;DHT22;3367;48.714;8.994;2023-03-31T03:10:27;9.40;1.00
6662;DHT22;3367;48.714;8.994;2023-03-31T03:13:03;9.30;1.00
6662;DHT22;3367;48.714;8.994;2023-03-31T03:15:38;9.30;1.00
6662;DHT22;3367;48.714;8.994;2023-03-31T03:18:08;9.20;1.00
6662;DHT22;3367;48.714;8.994;2023-03-31T03:20:35;9.10;1.00
6662;DHT22;3367;48.714;8.994;2023-03-31T03:23:03;9.00;1.00
6662;DHT22;3367;48.714;8.994;2023-03-31T03:25:30;8.90;1.00
6662;DHT22;3367;48.714;8.994;2023-03-31T03:27:58;8.90;99.90
6662;DHT22;3367;48.714;8.994;2023-03-31T03:30:25;8.90;99.90
6662;DHT22;3367;48.714;8.994;2023-03-31T03:32:53;8.90;1.00
6662;DHT22;3367;48.714;8.994;2023-03-31T03:35:20;8.90;1.00
6662;DHT22;3367;48.714;8.994;2023-03-31T03:37:47;8.90;1.00
6662;DHT22;3367;48.714;8.994;2023-03-31T03:40:13;8.90;1.00
6662;DHT22;3367;48.714;8.994;2023-03-31T03:42:40;8.90;1.00
6662;DHT22;3367;48.714;8.994;2023-03-31T03:45:07;9.00;1.00
6662;DHT22;3367;48.714;8.994;2023-03-31T03:47:35;9.00;1.00
6662;DHT22;3367;48.714;8.994;2023-03-31T03:50:03;9.00;1.00
6662;DHT22;3367;48.714;8.994;2023-03-31T03:52:30;9.00;1.00
6662;DHT22;3367;48.714;8.994;2023-03-31T03:54:57;9.00;1.00
6662;DHT22;3367;48.714;8.994;2023-03-31T03:57:26;8.90;1.00
6662;DHT22;3367;48.714;8.994;2023-03-31T03:59:52;8.90;1.00
6662;DHT22;3367;48.714;8.994;2023-03-31T04:02:19;8.80;1.00
6662;DHT22;3367;48.714;8.994;2023-03-31T04:04:46;8.70;1.00
6662;DHT22;3367;48.714;8.994;2023-03-31T04:07:14;8.70;1.00
6662;DHT22;3367;48.714;8.994;2023-03-31T04:09:42;8.60;50.10
6662;DHT22;3367;48.714;8.994;2023-03-31T04:12:08;8.60;99.90
6662;DHT22;3367;48.714;8.994;2023-03-31T04:14:35;8.60;99.90
6662;DHT22;3367;48.714;8.994;2023-03-31T04:17:02;8.50;1.00
6662;DHT22;3367;48.714;8.994;2023-03-31T04:19:28;8.50;1.00
6662;DHT22;3367;48.714;8.994;2023-03-31T04:21:55;8.50;1.00
6662;DHT22;3367;48.714;8.994;2023-03-31T04:24:28;8.50;1.00
6662;DHT22;3367;48.714;8.994;2023-03-31T04:26:57;8.50;1.00
6662;DHT22;3367;48.714;8.994;2023-03-31T04:29:24;8.50;1.00
6662;DHT22;3367;48.714;8.994;2023-03-31T04:31:52;8.60;1.00
6662;DHT22;3367;48.714;8.994;2023-03-31T04:34:24;8.60;1.00
6662;DHT22;3367;48.714;8.994;2023-03-31T04:36:59;8.60;1.00
6662;DHT22;3367;48.714;8.994;2023-03-31T04:39:29;8.60;1.00
6662;DHT22;3367;48.714;8.994;2023-03-31T04:41:56;8.70;1.00
6662;DHT22;3367;48.714;8.994;2023-03-31T04:44:23;8.70;1.00
6662;DHT22;3367;48.714;8.994;2023-03-31T04:46:50;8.70;1.00
6662;DHT22;3367;48.714;8.994;2023-03-31T04:49:17;8.70;1.00
6662;DHT22;3367;48.714;8.994;2023-03-31T04:51:44;8.70;1.00
6662;DHT22;3367;48.714;8.994;2023-03-31T04:54:10;8.80;1.00
6662;DHT22;3367;48.714;8.994;2023-03-31T04:56:38;8.80;1.00
6662;DHT22;3367;48.714;8.994;2023-03-31T04:59:05;8.80;1.00
6662;DHT22;3367;48.714;8.994;2023-03-31T05:01:33;8.80;1.00
6662;DHT22;3367;48.714;8.994;2023-03-31T05:04:00;8.90;1.00
6662;DHT22;3367;48.714;8.994;2023-03-31T05:06:27;8.90;1.00
6662;DHT22;3367;48.714;8.994;2023-03-31T05:08:54;8.90;1.00
6662;DHT22;3367;48.714;8.994;2023-03-31T05:11:20;8.90;1.00
6662;DHT22;3367;48.714;8.994;2023-03-31T05:13:48;9.00;1.00
6662;DHT22;3367;48.714;8.994;2023-03-31T05:16:15;9.00;1.00
6662;DHT22;3367;48.714;8.994;2023-03-31T05:18:43;9.00;1.00
6662;DHT22;3367;48.714;8.994;2023-03-31T05:21:12;8.90;3.80
6662;DHT22;3367;48.714;8.994;2023-03-31T05:23:39;8.90;99.90
6662;DHT22;3367;48.714;8.994;2023-03-31T05:26:06;8.90;99.90
6662;DHT22;3367;48.714;8.994;2023-03-31T05:28:33;8.90;1.00
6662;DHT22;3367;48.714;8.994;2023-03-31T05:31:03;8.80;1.00
6662;DHT22;3367;48.714;8.994;2023-03-31T05:33:30;8.80;1.00
6662;DHT22;3367;48.714;8.994;2023-03-31T05:35:57;8.80;1.00
6662;DHT22;3367;48.714;8.994;2023-03-31T05:38:24;8.70;73.40
6662;DHT22;3367;48.714;8.994;2023-03-31T05:40:53;8.80;99.90
6662;DHT22;3367;48.714;8.994;2023-03-31T05:43:20;8.70;1.00
6662;DHT22;3367;48.714;8.994;2023-03-31T05:45:46;8.70;1.00
6662;DHT22;3367;48.714;8.994;2023-03-31T05:48:15;8.70;1.00
6662;DHT22;3367;48.714;8.994;2023-03-31T05:50:42;8.70;1.00
6662;DHT22;3367;48.714;8.994;2023-03-31T05:53:09;8.70;24.30
6662;DHT22;3367;48.714;8.994;2023-03-31T05:55:36;8.70;99.90
6662;DHT22;3367;48.714;8.994;2023-03-31T05:58:03;8.70;99.90
6662;DHT22;3367;48.714;8.994;2023-03-31T06:00:31;8.70;99.90
6662;DHT22;3367;48.714;8.994;2023-03-31T06:02:57;8.70;99.90
6662;DHT22;3367;48.714;8.994;2023-03-31T06:05:26;8.70;1.00
6662;DHT22;3367;48.714;8.994;2023-03-31T06:07:55;8.80;1.00
6662;DHT22;3367;48.714;8.994;2023-03-31T06:10:22;8.80;1.00
6662;DHT22;3367;48.714;8.994;2023-03-31T06:12:48;8.80;1.00
6662;DHT22;3367;48.714;8.994;2023-03-31T06:15:15;8.80;1.00
6662;DHT22;3367;48.714;8.994;2023-03-31T06:17:42;8.80;1.00
6662;DHT22;3367;48.714;8.994;2023-03-31T06:20:09;8.80;1.00
6662;DHT22;3367;48.714;8.994;2023-03-31T06:22:37;8.90;1.00
6662;DHT22;3367;48.714;8.994;2023-03-31T06:25:05;9.00;1.00
6662;DHT22;3367;48.714;8.994;2023-03-31T06:27:31;9.00;1.00
6662;DHT22;3367;48.714;8.994;2023-03-31T06:29:58;9.00;1.00
6662;DHT22;3367;48.714;8.994;2023-03-31T06:32:25;9.00;1.00
6662;DHT22;3367;48.714;8.994;2023-03-31T06:34:51;9.00;99.90
6662;DHT22;3367;48.714;8.994;2023-03-31T06:37:18;9.00;1.00
6662;DHT22;3367;48.714;8.994;2023-03-31T06:39:46;9.00;1.00
6662;DHT22;3367;48.714;8.994;2023-03-31T06:42:13;9.00;1.00
6662;DHT22;3367;48.714;8.994;2023-03-31T06:44:40;9.00;1.00
6662;DHT22;3367;48.714;8.994;2023-03-31T06:47:07;9.00;1.00
6662;DHT22;3367;48.714;8.994;2023-03-31T06:49:33;9.00;1.00
6662;DHT22;3367;48.714;8.994;2023-03-31T06:52:00;9.00;1.00
6662;DHT22;3367;48.714;8.994;2023-03-31T06:54:28;9.00;1.00
6662;DHT22;3367;48.714;8.994;2023-03-31T06:56:56;9.00;1.00
6662;DHT22;3367;48.714;8.994;2023-03-31T06:59:23;9.00;1.00
6662;DHT22;3367;48.714;8.994;2023-03-31T07:01:49;9.00;1.00
6662;DHT22;3367;48.714;8.994;2023-03-31T07:04:16;9.00;1.00
6662;DHT22;3367;48.714;8.994;2023-03-31T07:06:43;9.00;1.00
6662;DHT22;3367;48.714;8.994;2023-03-31T07:09:09;9.00;1.00
6662;DHT22;3367;48.714;8.994;2023-03-31T07:11:36;9.00;1.00
6662;DHT22;3367;48.714;8.994;2023-03-31T07:14:04;9.00;1.00
6662;DHT22;3367;48.714;8.994;2023-03-31T07:16:31;9.00;1.00
6662;DHT22;3367;48.714;8.994;2023-03-31T07:18:57;9.00;99.90
6662;DHT22;3367;48.714;8.994;2023-03-31T07:21:28;9.00;1.00
6662;DHT22;3367;48.714;8.994;2023-03-31T07:23:54;9.00;1.00
6662;DHT22;3367;48.714;8.994;2023-03-31T07:26:21;9.10;99.90
6662;DHT22;3367;48.714;8.994;2023-03-31T07:28:48;9.20;99.90
6662;DHT22;3367;48.714;8.994;2023-03-31T07:31:17;9.20;1.00
6662;DHT22;3367;48.714;8.994;2023-03-31T07:33:44;9.40;99.90
6662;DHT22;3367;48.714;8.994;2023-03-31T07:36:11;9.70;99.90
6662;DHT22;3367;48.714;8.994;2023-03-31T07:38:38;10.00;99.90
6662;DHT22;3367;48.714;8.994;2023-03-31T07:41:05;10.50;99.90
6662;DHT22;3367;48.714;8.994;2023-03-31T07:43:31;10.80;99.90
6662;DHT22;3367;48.714;8.994;2023-03-31T07:45:58;10.80;1.00
6662;DHT22;3367;48.714;8.994;2023-03-31T07:48:26;10.80;1.00
6662;DHT22;3367;48.714;8.994;2023-03-31T07:50:53;10.60;1.00
6662;DHT22;3367;48.714;8.994;2023-03-31T07:53:20;10.50;1.00
6662;DHT22;3367;48.714;8.994;2023-03-31T07:55:46;10.60;10.60
6662;DHT22;3367;48.714;8.994;2023-03-31T07:58:13;10.70;71.40
6662;DHT22;3367;48.714;8.994;2023-03-31T08:00:40;10.80;1.00
6662;DHT22;3367;48.714;8.994;2023-03-31T08:03:07;10.90;1.00
6662;DHT22;3367;48.714;8.994;2023-03-31T08:05:35;11.10;1.00
6662;DHT22;3367;48.714;8.994;2023-03-31T08:08:02;11.20;1.00
6662;DHT22;3367;48.714;8.994;2023-03-31T08:10:29;11.30;1.00
6662;DHT22;3367;48.714;8.994;2023-03-31T08:12:55;11.40;99.90
6662;DHT22;3367;48.714;8.994;2023-03-31T08:15:22;11.60;1.00
6662;DHT22;3367;48.714;8.994;2023-03-31T08:17:49;11.70;1.00
6662;DHT22;3367;48.714;8.994;2023-03-31T08:20:16;11.70;1.00
6662;DHT22;3367;48.714;8.994;2023-03-31T08:22:44;11.80;99.90
6662;DHT22;3367;48.714;8.994;2023-03-31T08:25:10;11.90;1.00
6662;DHT22;3367;48.714;8.994;2023-03-31T08:27:39;12.10;1.00
6662;DHT22;3367;48.714;8.994;2023-03-31T08:30:07;12.20;99.90
6662;DHT22;3367;48.714;8.994;2023-03-31T08:32:34;12.30;1.00
6662;DHT22;3367;48.714;8.994;2023-03-31T08:35:02;12.40;99.90
6662;DHT22;3367;48.714;8.994;2023-03-31T08:37:29;12.50;99.90
6662;DHT22;3367;48.714;8.994;2023-03-31T08:39:57;12.60;99.90
6662;DHT22;3367;48.714;8.994;2023-03-31T08:42:31;12.50;99.90
6662;DHT22;3367;48.714;8.994;2023-03-31T08:45:03;12.60;1.00
6662;DHT22;3367;48.714;8.994;2023-03-31T08:47:33;12.70;99.90
6662;DHT22;3367;48.714;8.994;2023-03-31T08:50:06;12.80;1.00
6662;DHT22;3367;48.714;8.994;2023-03-31T08:52:36;12.90;1.00
6662;DHT22;3367;48.714;8.994;2023-03-31T08:55:11;13.20;1.00
6662;DHT22;3367;48.714;8.994;2023-03-31T08:57:45;13.40;1.00
6662;DHT22;3367;48.714;8.994;2023-03-31T09:00:18;13.60;1.00
6662;DHT22;3367;48.714;8.994;2023-03-31T09:02:50;13.90;99.90
6662;DHT22;3367;48.714;8.994;2023-03-31T09:08:32;14.20;1.00
6662;DHT22;3367;48.714;8.994;2023-03-31T09:11:08;14.00;1.00
6662;DHT22;3367;48.714;8.994;2023-03-31T09:13:56;14.00;1.00
6662;DHT22;3367;48.714;8.994;2023-03-31T09:16:29;13.90;1.00
6662;DHT22;3367;48.714;8.994;2023-03-31T09:18:59;13.90;1.00
6662;DHT22;3367;48.714;8.994;2023-03-31T09:21:29;13.90;1.00
6662;DHT22;3367;48.714;8.994;2023-03-31T09:24:02;14.10;1.00
6662;DHT22;3367;48.714;8.994;2023-03-31T09:26:36;14.10;1.00
6662;DHT22;3367;48.714;8.994;2023-03-31T09:29:09;14.20;1.00
6662;DHT22;3367;48.714;8.994;2023-03-31T09:31:41;14.10;1.00
6662;DHT22;3367;48.714;8.994;2023-03-31T09:34:13;13.90;1.00
6662;DHT22;3367;48.714;8.994;2023-03-31T09:36:40;13.80;1.00
6662;DHT22;3367;48.714;8.994;2023-03-31T09:39:12;13.60;1.00
6662;DHT22;3367;48.714;8.994;2023-03-31T09:41:43;13.40;1.00
6662;DHT22;3367;48.714;8.994;2023-03-31T09:44:24;13.30;1.00
6662;DHT22;3367;48.714;8.994;2023-03-31T09:46:52;13.50;1.00
6662;DHT22;3367;48.714;8.994;2023-03-31T09:49:21;13.60;1.00
6662;DHT22;3367;48.714;8.994;2023-03-31T09:51:51;13.60;1.00
6662;DHT22;3367;48.714;8.994;2023-03-31T09:54:25;13.60;1.00
6662;DHT22;3367;48.714;8.994;2023-03-31T09:56:55;13.70;1.00
6662;DHT22;3367;48.714;8.994;2023-03-31T09:59:29;13.80;1.00
6662;DHT22;3367;48.714;8.994;2023-03-31T10:01:59;14.00;1.00
6662;DHT22;3367;48.714;8.994;2023-03-31T10:04:28;14.00;1.00
6662;DHT22;3367;48.714;8.994;2023-03-31T10:06:56;14.00;1.00
6662;DHT22;3367;48.714;8.994;2023-03-31T10:09:25;13.90;1.00
6662;DHT22;3367;48.714;8.994;2023-03-31T10:11:56;13.90;1.00
6662;DHT22;3367;48.714;8.994;2023-03-31T10:14:25;14.10;1.00
6662;DHT22;3367;48.714;8.994;2023-03-31T10:16:54;14.30;1.00
6662;DHT22;3367;48.714;8.994;2023-03-31T10:19:22;14.40;1.00
6662;DHT22;3367;48.714;8.994;2023-03-31T10:21:55;14.30;1.00
6662;DHT22;3367;48.714;8.994;2023-03-31T10:24:23;14.40;1.00
6662;DHT22;3367;48.714;8.994;2023-03-31T10:26:53;14.70;1.00
6662;DHT22;3367;48.714;8.994;2023-03-31T10:29:25;15.00;1.00
6662;DHT22;3367;48.714;8.994;2023-03-31T10:31:54;14.90;1.00
6662;DHT22;3367;48.714;8.994;2023-03-31T10:34:22;15.10;1.00
6662;DHT22;3367;48.714;8.994;2023-03-31T10:36:50;14.90;1.00
6662;DHT22;3367;48.714;8.994;2023-03-31T10:39:18;14.60;1.00
6662;DHT22;3367;48.714;8.994;2023-03-31T10:41:49;14.40;1.00
6662;DHT22;3367;48.714;8.994;2023-03-31T10:44:32;14.50;1.00
6662;DHT22;3367;48.714;8.994;2023-03-31T10:47:05;14.70;1.00
6662;DHT22;3367;48.714;8.994;2023-03-31T10:49:37;15.00;1.00
6662;DHT22;3367;48.714;8.994;2023-03-31T10:52:17;15.30;1.00
6662;DHT22;3367;48.714;8.994;2023-03-31T10:54:46;15.40;1.00
6662;DHT22;3367;48.714;8.994;2023-03-31T10:57:14;15.20;1.00
6662;DHT22;3367;48.714;8.994;2023-03-31T10:59:55;15.10;1.00
6662;DHT22;3367;48.714;8.994;2023-03-31T11:02:52;15.10;1.00
6662;DHT22;3367;48.714;8.994;2023-03-31T11:05:25;15.10;1.00
6662;DHT22;3367;48.714;8.994;2023-03-31T11:08:05;15.10;1.00
6662;DHT22;3367;48.714;8.994;2023-03-31T11:10:48;14.40;1.00
6662;DHT22;3367;48.714;8.994;2023-03-31T11:13:21;14.10;1.00
6662;DHT22;3367;48.714;8.994;2023-03-31T11:15:57;13.30;1.00
6662;DHT22;3367;48.714;8.994;2023-03-31T11:18:38;11.70;99.90
6662;DHT22;3367;48.714;8.994;2023-03-31T11:21:17;10.40;1.00
6662;DHT22;3367;48.714;8.994;2023-03-31T11:23:52;9.70;1.00
6662;DHT22;3367;48.714;8.994;2023-03-31T11:26:28;9.30;1.00
6662;DHT22;3367;48.714;8.994;2023-03-31T11:29:05;9.10;99.90
6662;DHT22;3367;48.714;8.994;2023-03-31T11:31:44;9.00;1.00
6662;DHT22;3367;48.714;8.994;2023-03-31T11:34:29;8.90;99.90
6662;DHT22;3367;48.714;8.994;2023-03-31T11:37:25;8.80;99.90
6662;DHT22;3367;48.714;8.994;2023-03-31T11:40:13;8.80;1.00
6662;DHT22;3367;48.714;8.994;2023-03-31T11:42:46;8.80;1.00
6662;DHT22;3367;48.714;8.994;2023-03-31T11:45:18;8.80;1.00
6662;DHT22;3367;48.714;8.994;2023-03-31T11:47:50;9.00;99.90
6662;DHT22;3367;48.714;8.994;2023-03-31T11:50:20;9.20;99.90
6662;DHT22;3367;48.714;8.994;2023-03-31T11:52:52;9.40;99.90
6662;DHT22;3367;48.714;8.994;2023-03-31T11:55:22;9.90;99.90
6662;DHT22;3367;48.714;8.994;2023-03-31T11:57:58;10.50;1.00
6662;DHT22;3367;48.714;8.994;2023-03-31T12:00:28;11.10;1.00
6662;DHT22;3367;48.714;8.994;2023-03-31T12:03:03;11.40;1.00
6662;DHT22;3367;48.714;8.994;2023-03-31T12:08:05;11.60;99.90
6662;DHT22;3367;48.714;8.994;2023-03-31T12:10:35;11.60;99.90
6662;DHT22;3367;48.714;8.994;2023-03-31T12:13:08;11.40;99.90
6662;DHT22;3367;48.714;8.994;2023-03-31T12:15:43;11.40;99.90
6662;DHT22;3367;48.714;8.994;2023-03-31T12:18:17;11.40;99.90
6662;DHT22;3367;48.714;8.994;2023-03-31T12:20:49;11.50;99.90
6662;DHT22;3367;48.714;8.994;2023-03-31T12:23:20;11.80;99.90
6662;DHT22;3367;48.714;8.994;2023-03-31T12:25:51;12.00;99.90
6662;DHT22;3367;48.714;8.994;2023-03-31T12:28:21;12.20;99.90
6662;DHT22;3367;48.714;8.994;2023-03-31T12:30:49;12.30;89.70
6662;DHT22;3367;48.714;8.994;2023-03-31T12:33:20;12.20;66.20
6662;DHT22;3367;48.714;8.994;2023-03-31T12:35:59;12.30;28.00
6662;DHT22;3367;48.714;8.994;2023-03-31T12:38:40;12.30;42.50
6662;DHT22;3367;48.714;8.994;2023-03-31T12:41:15;12.40;3.50
6662;DHT22;3367;48.714;8.994;2023-03-31T12:44:01;12.40;7.20
6662;DHT22;3367;48.714;8.994;2023-03-31T12:46:44;12.50;1.70
6662;DHT22;3367;48.714;8.994;2023-03-31T12:49:24;12.60;1.00
6662;DHT22;3367;48.714;8.994;2023-03-31T12:51:59;12.80;1.00
6662;DHT22;3367;48.714;8.994;2023-03-31T12:54:42;12.90;1.00
6662;DHT22;3367;48.714;8.994;2023-03-31T12:57:19;13.10;1.00
6662;DHT22;3367;48.714;8.994;2023-03-31T13:00:23;12.90;1.00
6662;DHT22;3367;48.714;8.994;2023-03-31T13:05:57;13.00;1.00
6662;DHT22;3367;48.714;8.994;2023-03-31T13:08:49;13.00;1.00
6662;DHT22;3367;48.714;8.994;2023-03-31T13:11:16;12.90;1.00
6662;DHT22;3367;48.714;8.994;2023-03-31T13:13:45;12.70;1.00
6662;DHT22;3367;48.714;8.994;2023-03-31T13:16:18;12.50;1.00
6662;DHT22;3367;48.714;8.994;2023-03-31T13:18:50;12.20;10.70
6662;DHT22;3367;48.714;8.994;2023-03-31T13:21:19;11.90;99.90
6662;DHT22;3367;48.714;8.994;2023-03-31T13:23:46;11.40;99.90
6662;DHT22;3367;48.714;8.994;2023-03-31T13:26:36;11.00;1.00
6662;DHT22;3367;48.714;8.994;2023-03-31T13:32:18;10.50;1.00
6662;DHT22;3367;48.714;8.994;2023-03-31T13:34:49;10.10;1.00
6662;DHT22;3367;48.714;8.994;2023-03-31T13:37:28;9.60;1.00
6662;DHT22;3367;48.714;8.994;2023-03-31T13:40:21;9.30;1.00
6662;DHT22;3367;48.714;8.994;2023-03-31T13:43:03;9.10;1.00
6662;DHT22;3367;48.714;8.994;2023-03-31T13:45:46;8.80;1.00
6662;DHT22;3367;48.714;8.994;2023-03-31T13:48:23;8.70;75.00
6662;DHT22;3367;48.714;8.994;2023-03-31T13:51:06;8.60;1.00
6662;DHT22;3367;48.714;8.994;2023-03-31T13:53:52;8.40;99.90
6662;DHT22;3367;48.714;8.994;2023-03-31T13:56:38;8.40;1.00
6662;DHT22;3367;48.714;8.994;2023-03-31T14:05:21;8.70;81.00
6662;DHT22;3367;48.714;8.994;2023-03-31T14:07:53;9.40;1.00
6662;DHT22;3367;48.714;8.994;2023-03-31T14:10:24;10.00;1.00
6662;DHT22;3367;48.714;8.994;2023-03-31T14:13:02;10.60;1.00
6662;DHT22;3367;48.714;8.994;2023-03-31T14:15:29;10.90;1.00
6662;DHT22;3367;48.714;8.994;2023-03-31T14:17:57;11.00;99.90
6662;DHT22;3367;48.714;8.994;2023-03-31T14:20:34;11.10;1.00
6662;DHT22;3367;48.714;8.994;2023-03-31T14:23:20;11.20;99.90
6662;DHT22;3367;48.714;8.994;2023-03-31T14:25:55;11.00;1.00
6662;DHT22;3367;48.714;8.994;2023-03-31T14:28:42;10.80;1.00
6662;DHT22;3367;48.714;8.994;2023-03-31T14:31:15;10.60;99.90
6662;DHT22;3367;48.714;8.994;2023-03-31T14:34:06;10.90;99.90
6662;DHT22;3367;48.714;8.994;2023-03-31T14:36:41;11.00;1.00
6662;DHT22;3367;48.714;8.994;2023-03-31T14:39:16;11.10;99.90
6662;DHT22;3367;48.714;8.994;2023-03-31T14:41:51;11.20;1.00
6662;DHT22;3367;48.714;8.994;2023-03-31T14:44:18;11.40;1.00
6662;DHT22;3367;48.714;8.994;2023-03-31T14:46:45;11.50;1.00
6662;DHT22;3367;48.714;8.994;2023-03-31T14:49:18;11.70;1.00
6662;DHT22;3367;48.714;8.994;2023-03-31T14:51:46;11.90;1.00
6662;DHT22;3367;48.714;8.994;2023-03-31T14:54:16;12.00;1.00
6662;DHT22;3367;48.714;8.994;2023-03-31T14:56:44;12.00;1.00
6662;DHT22;3367;48.714;8.994;2023-03-31T14:59:17;12.00;1.00
6662;DHT22;3367;48.714;8.994;2023-03-31T15:01:46;12.10;1.00
6662;DHT22;3367;48.714;8.994;2023-03-31T15:04:16;11.80;1.00
6662;DHT22;3367;48.714;8.994;2023-03-31T15:06:45;11.90;99.90
6662;DHT22;3367;48.714;8.994;2023-03-31T15:09:18;11.80;99.90
6662;DHT22;3367;48.714;8.994;2023-03-31T15:11:46;11.70;99.90
6662;DHT22;3367;48.714;8.994;2023-03-31T15:14:14;11.70;99.90
6662;DHT22;3367;48.714;8.994;2023-03-31T15:16:43;11.70;99.90
6662;DHT22;3367;48.714;8.994;2023-03-31T15:19:14;11.60;99.90
6662;DHT22;3367;48.714;8.994;2023-03-31T15:21:41;11.50;99.90
6662;DHT22;3367;48.714;8.994;2023-03-31T15:24:10;11.60;99.90
6662;DHT22;3367;48.714;8.994;2023-03-31T15:26:42;11.70;99.90
6662;DHT22;3367;48.714;8.994;2023-03-31T15:29:16;11.70;99.90
6662;DHT22;3367;48.714;8.994;2023-03-31T15:31:44;11.70;99.90
6662;DHT22;3367;48.714;8.994;2023-03-31T15:34:14;11.80;99.90
6662;DHT22;3367;48.714;8.994;2023-03-31T15:36:41;11.70;99.90
6662;DHT22;3367;48.714;8.994;2023-03-31T15:39:10;11.60;99.70
6662;DHT22;3367;48.714;8.994;2023-03-31T15:41:39;11.50;99.90
6662;DHT22;3367;48.714;8.994;2023-03-31T15:44:07;11.50;99.90
6662;DHT22;3367;48.714;8.994;2023-03-31T15:47:01;11.40;93.60
6662;DHT22;3367;48.714;8.994;2023-03-31T15:49:31;11.40;89.60
6662;DHT22;3367;48.714;8.994;2023-03-31T15:51:58;11.40;92.30
6662;DHT22;3367;48.714;8.994;2023-03-31T15:54:33;11.40;80.00
6662;DHT22;3367;48.714;8.994;2023-03-31T15:57:01;11.50;85.90
6662;DHT22;3367;48.714;8.994;2023-03-31T15:59:29;11.40;68.20
6662;DHT22;3367;48.714;8.994;2023-03-31T16:01:57;11.50;78.10
6662;DHT22;3367;48.714;8.994;2023-03-31T16:04:30;11.50;81.30
6662;DHT22;3367;48.714;8.994;2023-03-31T16:06:59;11.40;71.90
6662;DHT22;3367;48.714;8.994;2023-03-31T16:09:37;11.30;62.30
6662;DHT22;3367;48.714;8.994;2023-03-31T16:12:10;11.20;60.40
6662;DHT22;3367;48.714;8.994;2023-03-31T16:14:45;11.20;77.80
6662;DHT22;3367;48.714;8.994;2023-03-31T16:17:23;11.00;99.90
6662;DHT22;3367;48.714;8.994;2023-03-31T16:19:56;10.80;99.90
6662;DHT22;3367;48.714;8.994;2023-03-31T16:22:29;10.60;99.90
6662;DHT22;3367;48.714;8.994;2023-03-31T16:24:57;10.40;99.90
6662;DHT22;3367;48.714;8.994;2023-03-31T16:27:24;10.20;99.90
6662;DHT22;3367;48.714;8.994;2023-03-31T16:30:05;10.10;1.00
6662;DHT22;3367;48.714;8.994;2023-03-31T16:32:31;10.00;1.00
6662;DHT22;3367;48.714;8.994;2023-03-31T16:35:01;9.80;1.00
6662;DHT22;3367;48.714;8.994;2023-03-31T16:37:29;9.50;1.00
6662;DHT22;3367;48.714;8.994;2023-03-31T16:39:56;9.30;1.00
6662;DHT22;3367;48.714;8.994;2023-03-31T16:42:23;9.20;1.00
6662;DHT22;3367;48.714;8.994;2023-03-31T16:44:50;9.10;57.60
6662;DHT22;3367;48.714;8.994;2023-03-31T16:47:16;9.20;99.90
6662;DHT22;3367;48.714;8.994;2023-03-31T16:49:43;9.10;1.00
6662;DHT22;3367;48.714;8.994;2023-03-31T16:52:11;9.20;1.00
6662;DHT22;3367;48.714;8.994;2023-03-31T16:54:38;9.20;8.60
6662;DHT22;3367;48.714;8.994;2023-03-31T16:57:05;9.20;1.00
6662;DHT22;3367;48.714;8.994;2023-03-31T16:59:33;9.20;1.00
6662;DHT22;3367;48.714;8.994;2023-03-31T17:01:59;9.20;99.90
6662;DHT22;3367;48.714;8.994;2023-03-31T17:04:26;9.10;99.90
6662;DHT22;3367;48.714;8.994;2023-03-31T17:06:53;9.10;99.90
6662;DHT22;3367;48.714;8.994;2023-03-31T17:09:20;9.10;99.90
6662;DHT22;3367;48.714;8.994;2023-03-31T17:11:47;9.10;99.90
6662;DHT22;3367;48.714;8.994;2023-03-31T17:14:14;9.00;99.90